createdAt,value
2018-09-19T00:02:23.715Z,16.50
2018-09-19T00:04:52.168Z,16.50
2018-09-19T00:07:20.641Z,16.50
2018-09-19T00:09:49.133Z,16.50
2018-09-19T00:12:17.570Z,16.50
2018-09-19T00:14:46.049Z,16.40
2018-09-19T00:17:14.504Z,16.40
2018-09-19T00:19:42.983Z,16.50
2018-09-19T00:22:11.459Z,16.50
2018-09-19T00:24:39.954Z,16.50
2018-09-19T00:27:08.419Z,16.50
2018-09-19T00:29:36.885Z,16.50
2018-09-19T00:32:05.353Z,16.50
2018-09-19T00:34:33.836Z,16.40
2018-09-19T00:37:02.332Z,16.40
2018-09-19T00:39:30.832Z,16.40
2018-09-19T00:41:59.273Z,16.30
2018-09-19T00:44:27.771Z,16.40
2018-09-19T00:46:56.230Z,16.40
2018-09-19T00:49:24.695Z,16.40
2018-09-19T00:51:53.172Z,16.40
2018-09-19T00:54:21.671Z,16.40
2018-09-19T00:56:50.190Z,16.40
2018-09-19T00:59:18.670Z,16.40
2018-09-19T01:01:47.140Z,16.40
2018-09-19T01:04:15.579Z,16.40
2018-09-19T01:06:44.235Z,16.30
2018-09-19T01:09:12.703Z,16.30
2018-09-19T01:11:41.161Z,16.40
2018-09-19T01:14:12.645Z,16.40
2018-09-19T01:16:41.205Z,16.40
2018-09-19T01:19:09.713Z,16.40
2018-09-19T01:21:38.139Z,16.40
2018-09-19T01:24:06.802Z,16.40
2018-09-19T01:26:35.331Z,16.40
2018-09-19T01:29:03.835Z,16.40
2018-09-19T01:31:32.265Z,16.40
2018-09-19T01:34:00.734Z,16.30
2018-09-19T01:36:29.167Z,16.30
2018-09-19T01:38:57.591Z,16.30
2018-09-19T01:41:26.056Z,16.20
2018-09-19T01:43:54.547Z,16.20
2018-09-19T01:46:22.996Z,16.20
2018-09-19T01:48:51.442Z,16.20
2018-09-19T01:51:19.862Z,16.10
2018-09-19T01:53:48.394Z,16.10
2018-09-19T01:56:17.414Z,16.00
2018-09-19T01:58:45.866Z,16.10
2018-09-19T02:01:14.297Z,16.10
2018-09-19T02:03:42.857Z,16.10
2018-09-19T02:06:11.297Z,16.10
2018-09-19T02:08:39.793Z,16.20
2018-09-19T02:11:08.279Z,16.20
2018-09-19T02:13:36.895Z,16.20
2018-09-19T02:16:05.441Z,16.20
2018-09-19T02:18:34.004Z,16.10
2018-09-19T02:21:02.475Z,16.20
2018-09-19T02:23:30.925Z,16.10
2018-09-19T02:25:59.497Z,16.10
2018-09-19T02:28:28.050Z,16.10
2018-09-19T02:30:56.477Z,16.10
2018-09-19T02:33:24.937Z,16.10
2018-09-19T02:35:53.422Z,16.00
2018-09-19T02:38:21.946Z,16.00
2018-09-19T02:40:50.438Z,16.00
2018-09-19T02:43:18.912Z,15.90
2018-09-19T02:45:47.888Z,15.90
2018-09-19T02:48:16.312Z,15.90
2018-09-19T02:50:44.840Z,15.90
2018-09-19T02:53:13.320Z,15.90
2018-09-19T02:55:41.822Z,15.80
2018-09-19T02:58:10.250Z,15.80
2018-09-19T03:00:38.796Z,15.70
2018-09-19T03:03:07.299Z,15.70
2018-09-19T03:05:35.814Z,15.70
2018-09-19T03:08:04.362Z,15.70
2018-09-19T03:10:32.808Z,15.60
2018-09-19T03:13:01.282Z,15.60
2018-09-19T03:15:29.906Z,15.60
2018-09-19T03:17:58.319Z,15.60
2018-09-19T03:20:26.786Z,15.50
2018-09-19T03:22:55.211Z,15.50
2018-09-19T03:25:24.393Z,15.50
2018-09-19T03:27:52.964Z,15.50
2018-09-19T03:30:21.590Z,15.40
2018-09-19T03:32:50.122Z,15.40
2018-09-19T03:35:18.793Z,15.30
2018-09-19T03:37:47.381Z,15.20
2018-09-19T03:40:15.839Z,15.10
2018-09-19T03:42:44.327Z,15.10
2018-09-19T03:45:12.813Z,15.10
2018-09-19T03:47:41.317Z,15.10
2018-09-19T03:50:09.755Z,15.10
2018-09-19T03:52:38.381Z,15.10
2018-09-19T03:55:06.846Z,15.10
2018-09-19T03:57:35.288Z,15.10
2018-09-19T04:00:03.853Z,15.10
2018-09-19T04:02:32.332Z,15.10
2018-09-19T04:05:00.789Z,15.10
2018-09-19T04:07:29.383Z,15.00
2018-09-19T04:09:57.876Z,15.10
2018-09-19T04:12:26.492Z,15.10
2018-09-19T04:14:54.944Z,15.10
2018-09-19T04:17:23.394Z,15.10
2018-09-19T04:19:51.890Z,15.20
2018-09-19T04:22:20.390Z,15.20
2018-09-19T04:24:48.883Z,15.30
2018-09-19T04:27:17.384Z,15.30
2018-09-19T04:29:45.889Z,15.30
2018-09-19T04:32:14.388Z,15.40
2018-09-19T04:34:42.881Z,15.40
2018-09-19T04:37:11.561Z,15.40
2018-09-19T04:39:40.064Z,15.50
2018-09-19T04:42:08.732Z,15.50
2018-09-19T04:44:37.229Z,15.50
2018-09-19T04:47:05.701Z,15.50
2018-09-19T04:49:34.272Z,15.50
2018-09-19T04:52:02.788Z,15.50
2018-09-19T04:54:31.271Z,15.50
2018-09-19T04:57:00.098Z,15.50
2018-09-19T04:59:28.579Z,15.50
2018-09-19T05:01:57.016Z,15.50
2018-09-19T05:04:25.566Z,15.50
2018-09-19T05:06:54.007Z,15.50
2018-09-19T05:09:22.487Z,15.50
2018-09-19T05:11:51.005Z,15.40
2018-09-19T05:14:19.511Z,15.50
2018-09-19T05:16:48.004Z,15.50
2018-09-19T05:19:16.492Z,15.50
2018-09-19T05:21:44.932Z,15.50
2018-09-19T05:24:13.376Z,15.50
2018-09-19T05:26:41.855Z,15.50
2018-09-19T05:29:10.295Z,15.50
2018-09-19T05:31:38.825Z,15.50
2018-09-19T05:34:07.306Z,15.50
2018-09-19T05:36:35.796Z,15.50
2018-09-19T05:39:05.627Z,15.50
2018-09-19T05:41:34.227Z,15.50
2018-09-19T05:44:02.768Z,15.50
2018-09-19T05:46:31.260Z,15.50
2018-09-19T05:48:59.739Z,15.50
2018-09-19T05:51:28.266Z,15.60
2018-09-19T05:53:56.717Z,15.60
2018-09-19T05:56:25.197Z,15.60
2018-09-19T05:58:53.674Z,15.70
2018-09-19T06:01:22.130Z,15.70
2018-09-19T06:03:50.598Z,15.70
2018-09-19T06:06:19.090Z,15.70
2018-09-19T06:08:47.638Z,15.80
2018-09-19T06:11:16.182Z,15.80
2018-09-19T06:13:44.696Z,15.80
2018-09-19T06:16:13.176Z,15.80
2018-09-19T06:18:41.636Z,15.80
2018-09-19T06:21:10.114Z,15.90
2018-09-19T06:23:38.595Z,15.90
2018-09-19T06:26:07.026Z,16.00
2018-09-19T06:28:35.474Z,16.00
2018-09-19T06:31:03.985Z,16.00
2018-09-19T06:33:32.497Z,15.90
2018-09-19T06:36:00.879Z,15.90
2018-09-19T06:38:29.359Z,15.90
2018-09-19T06:40:58.924Z,16.00
2018-09-19T06:43:27.213Z,16.00
2018-09-19T06:45:55.728Z,16.00
2018-09-19T06:48:24.210Z,16.00
2018-09-19T06:50:52.705Z,16.10
2018-09-19T06:53:21.472Z,16.20
2018-09-19T06:55:50.024Z,16.40
2018-09-19T06:58:18.538Z,16.60
2018-09-19T07:00:47.008Z,16.80
2018-09-19T07:03:15.638Z,17.10
2018-09-19T07:05:44.173Z,17.30
2018-09-19T07:08:12.763Z,17.60
2018-09-19T07:10:41.304Z,17.80
2018-09-19T07:13:09.721Z,17.90
2018-09-19T07:15:38.281Z,17.90
2018-09-19T07:18:06.753Z,18.20
2018-09-19T07:20:35.254Z,18.60
2018-09-19T07:23:03.798Z,19.00
2018-09-19T07:25:32.546Z,19.20
2018-09-19T07:28:01.009Z,19.30
2018-09-19T07:30:29.659Z,19.40
2018-09-19T07:32:58.159Z,19.50
2018-09-19T07:35:26.651Z,19.60
2018-09-19T07:37:55.107Z,19.70
2018-09-19T07:40:23.688Z,19.90
2018-09-19T07:42:52.132Z,20.10
2018-09-19T07:45:20.664Z,20.40
2018-09-19T07:47:49.136Z,20.50
2018-09-19T07:50:17.630Z,20.70
2018-09-19T07:52:46.085Z,20.80
2018-09-19T07:55:14.606Z,21.00
2018-09-19T07:57:43.150Z,21.10
2018-09-19T08:00:11.658Z,21.30
2018-09-19T08:02:40.144Z,21.50
2018-09-19T08:05:08.676Z,21.70
2018-09-19T08:07:37.178Z,21.90
2018-09-19T08:10:05.640Z,22.10
2018-09-19T08:12:34.206Z,22.20
2018-09-19T08:15:02.725Z,22.30
2018-09-19T08:17:31.901Z,22.50
2018-09-19T08:20:00.417Z,22.60
2018-09-19T08:22:28.906Z,22.70
2018-09-19T08:24:57.371Z,22.70
2018-09-19T08:27:25.866Z,22.80
2018-09-19T08:29:54.324Z,22.90
2018-09-19T08:32:22.788Z,23.00
2018-09-19T08:34:51.266Z,23.10
2018-09-19T08:37:19.794Z,23.20
2018-09-19T08:39:48.445Z,23.30
2018-09-19T08:42:16.990Z,23.50
2018-09-19T08:44:45.562Z,23.60
2018-09-19T08:47:14.076Z,23.70
2018-09-19T08:49:42.565Z,23.90
2018-09-19T08:52:11.083Z,24.10
2018-09-19T08:54:39.527Z,24.20
2018-09-19T08:57:08.428Z,24.20
2018-09-19T08:59:37.049Z,24.20
2018-09-19T09:02:05.565Z,24.20
2018-09-19T09:04:34.033Z,24.10
2018-09-19T09:07:02.522Z,24.20
2018-09-19T09:09:30.999Z,24.40
2018-09-19T09:11:59.822Z,24.70
2018-09-19T09:14:28.272Z,24.80
2018-09-19T09:16:57.160Z,25.00
2018-09-19T09:19:25.619Z,25.10
2018-09-19T09:21:54.100Z,25.30
2018-09-19T09:24:22.675Z,25.30
2018-09-19T09:26:51.235Z,25.20
2018-09-19T09:29:19.668Z,25.40
2018-09-19T09:31:48.127Z,25.50
2018-09-19T09:34:16.564Z,25.60
2018-09-19T09:36:45.066Z,25.70
2018-09-19T09:39:13.461Z,25.70
2018-09-19T09:41:41.805Z,25.60
2018-09-19T09:44:10.364Z,25.40
2018-09-19T09:46:38.871Z,25.30
2018-09-19T09:49:07.223Z,25.40
2018-09-19T09:51:35.914Z,25.50
2018-09-19T09:54:04.312Z,25.70
2018-09-19T09:56:32.672Z,25.90
2018-09-19T09:59:02.006Z,26.10
2018-09-19T10:01:30.403Z,26.20
2018-09-19T10:03:58.847Z,26.30
2018-09-19T10:06:27.280Z,26.60
2018-09-19T10:08:55.673Z,26.60
2018-09-19T10:11:24.034Z,26.60
2018-09-19T10:13:52.521Z,26.60
2018-09-19T10:16:20.828Z,26.70
2018-09-19T10:18:49.213Z,26.70
2018-09-19T10:21:17.624Z,26.80
2018-09-19T10:23:46.102Z,26.80
2018-09-19T10:26:14.556Z,26.80
2018-09-19T10:28:42.895Z,26.50
2018-09-19T10:31:11.233Z,26.50
2018-09-19T10:33:39.602Z,26.40
2018-09-19T10:36:08.058Z,26.20
2018-09-19T10:38:36.438Z,26.10
2018-09-19T10:41:04.795Z,26.20
2018-09-19T10:43:33.178Z,26.40
2018-09-19T10:46:01.581Z,26.50
2018-09-19T10:48:29.970Z,26.50
2018-09-19T10:50:58.379Z,26.50
2018-09-19T10:53:26.891Z,26.60
2018-09-19T10:55:55.308Z,26.70
2018-09-19T10:58:23.761Z,26.90
2018-09-19T11:00:52.228Z,27.10
2018-09-19T11:03:20.651Z,27.40
2018-09-19T11:05:49.168Z,27.50
2018-09-19T11:08:17.705Z,27.80
2018-09-19T11:10:46.339Z,28.00
2018-09-19T11:13:14.815Z,28.10
2018-09-19T11:15:43.303Z,28.10
2018-09-19T11:18:11.763Z,28.30
2018-09-19T11:20:40.300Z,28.30
2018-09-19T11:23:08.764Z,28.30
2018-09-19T11:25:37.256Z,28.40
2018-09-19T11:28:05.998Z,28.30
2018-09-19T11:30:34.689Z,28.40
2018-09-19T11:33:03.135Z,28.50
2018-09-19T11:35:31.563Z,28.40
2018-09-19T11:38:00.023Z,28.60
2018-09-19T11:40:28.446Z,28.70
2018-09-19T11:42:56.951Z,28.70
2018-09-19T11:45:25.426Z,28.60
2018-09-19T11:47:53.925Z,28.60
2018-09-19T11:50:22.382Z,28.60
2018-09-19T11:52:50.891Z,28.80
2018-09-19T11:55:20.425Z,28.80
2018-09-19T11:57:48.921Z,28.70
2018-09-19T12:00:17.800Z,28.70
2018-09-19T12:02:46.282Z,28.80
2018-09-19T12:05:14.749Z,28.80
2018-09-19T12:07:43.210Z,28.90
2018-09-19T12:10:11.687Z,29.00
2018-09-19T12:12:40.113Z,28.90
2018-09-19T12:15:08.654Z,29.00
2018-09-19T12:17:37.123Z,29.00
2018-09-19T12:20:05.759Z,29.00
2018-09-19T12:22:34.234Z,29.10
2018-09-19T12:25:02.736Z,29.10
2018-09-19T12:27:31.182Z,29.00
2018-09-19T12:29:59.664Z,29.00
2018-09-19T12:32:28.138Z,29.00
2018-09-19T12:34:56.577Z,28.90
2018-09-19T12:37:25.072Z,29.00
2018-09-19T12:39:53.534Z,29.00
2018-09-19T12:42:22.026Z,28.90
2018-09-19T12:44:50.496Z,28.60
2018-09-19T12:47:19.164Z,28.50
2018-09-19T12:49:47.643Z,28.50
2018-09-19T12:52:16.108Z,28.60
2018-09-19T12:54:44.569Z,28.70
2018-09-19T12:57:13.053Z,28.80
2018-09-19T12:59:41.525Z,28.80
2018-09-19T13:02:10.044Z,28.70
2018-09-19T13:04:38.498Z,28.80
2018-09-19T13:07:07.015Z,28.80
2018-09-19T13:09:35.532Z,29.00
2018-09-19T13:12:04.054Z,29.10
2018-09-19T13:14:32.499Z,29.10
2018-09-19T13:17:00.983Z,29.00
2018-09-19T13:19:29.487Z,29.10
2018-09-19T13:21:57.968Z,29.20
2018-09-19T13:24:26.653Z,29.10
2018-09-19T13:26:55.155Z,28.90
2018-09-19T13:29:23.625Z,28.80
2018-09-19T13:31:52.747Z,28.70
2018-09-19T13:34:21.252Z,28.60
2018-09-19T13:36:49.790Z,28.60
2018-09-19T13:39:18.357Z,28.50
2018-09-19T13:41:46.851Z,28.50
2018-09-19T13:44:15.317Z,28.40
2018-09-19T13:46:43.848Z,28.40
2018-09-19T13:49:48.530Z,28.30
2018-09-19T13:52:17.010Z,28.40
2018-09-19T13:54:45.492Z,28.60
2018-09-19T13:57:14.012Z,28.70
2018-09-19T13:59:42.503Z,28.70
2018-09-19T14:02:11.037Z,28.80
2018-09-19T14:04:39.532Z,28.70
2018-09-19T14:07:08.174Z,28.60
2018-09-19T14:09:36.680Z,28.60
2018-09-19T14:12:05.234Z,28.50
2018-09-19T14:14:33.724Z,28.40
2018-09-19T14:17:02.261Z,28.40
2018-09-19T14:19:30.745Z,28.30
2018-09-19T14:21:59.319Z,28.10
2018-09-19T14:24:27.825Z,28.00
2018-09-19T14:26:56.295Z,27.90
2018-09-19T14:29:24.843Z,27.90
2018-09-19T14:31:53.319Z,27.80
2018-09-19T14:34:21.821Z,27.80
2018-09-19T14:36:51.243Z,27.80
2018-09-19T14:39:20.025Z,27.70
2018-09-19T14:41:49.226Z,27.70
2018-09-19T14:44:17.727Z,27.60
2018-09-19T14:46:46.222Z,27.40
2018-09-19T14:49:14.734Z,27.30
2018-09-19T14:51:43.174Z,27.30
2018-09-19T14:54:11.750Z,27.20
2018-09-19T14:56:40.335Z,27.20
2018-09-19T14:59:08.866Z,27.10
2018-09-19T15:01:37.393Z,26.90
2018-09-19T15:04:05.918Z,27.00
2018-09-19T15:06:34.456Z,27.00
2018-09-19T15:09:03.453Z,27.10
2018-09-19T15:11:31.985Z,27.10
2018-09-19T15:14:00.468Z,27.00
2018-09-19T15:16:28.940Z,27.10
2018-09-19T15:18:57.417Z,27.10
2018-09-19T15:21:25.934Z,27.00
2018-09-19T15:23:54.509Z,27.00
2018-09-19T15:26:23.215Z,27.10
2018-09-19T15:28:51.828Z,27.10
2018-09-19T15:31:20.373Z,26.90
2018-09-19T15:33:48.945Z,26.80
2018-09-19T15:36:17.400Z,26.80
2018-09-19T15:38:45.872Z,26.80
2018-09-19T15:41:14.327Z,26.80
2018-09-19T15:43:42.843Z,26.80
2018-09-19T15:46:11.203Z,26.80
2018-09-19T15:48:39.677Z,26.80
2018-09-19T15:51:08.181Z,26.70
2018-09-19T15:53:36.645Z,26.70
2018-09-19T15:56:05.168Z,26.70
2018-09-19T15:58:33.839Z,26.80
2018-09-19T16:03:28.172Z,26.70
2018-09-19T16:05:56.750Z,26.60
2018-09-19T16:08:25.355Z,26.40
2018-09-19T16:10:53.843Z,26.20
2018-09-19T16:13:22.337Z,26.00
2018-09-19T16:15:50.806Z,25.90
2018-09-19T16:18:19.308Z,25.70
2018-09-19T16:20:47.804Z,25.60
2018-09-19T16:23:17.041Z,25.40
2018-09-19T16:25:45.480Z,25.30
2018-09-19T16:28:13.976Z,25.10
2018-09-19T16:30:42.453Z,24.90
2018-09-19T16:33:10.914Z,24.80
2018-09-19T16:35:40.453Z,24.70
2018-09-19T16:38:08.969Z,24.60
2018-09-19T16:40:38.021Z,24.50
2018-09-19T16:43:06.599Z,24.50
2018-09-19T16:45:35.138Z,24.40
2018-09-19T16:48:03.574Z,24.30
2018-09-19T16:50:32.036Z,24.20
2018-09-19T16:53:00.561Z,24.20
2018-09-19T16:55:28.954Z,24.10
2018-09-19T16:57:57.476Z,24.00
2018-09-19T17:00:25.983Z,23.90
2018-09-19T17:02:54.439Z,23.80
2018-09-19T17:05:22.954Z,23.70
2018-09-19T17:07:51.452Z,23.60
2018-09-19T17:10:19.952Z,23.50
2018-09-19T17:12:48.468Z,23.40
2018-09-19T17:15:17.101Z,23.30
2018-09-19T17:17:45.627Z,23.20
2018-09-19T17:20:14.138Z,23.20
2018-09-19T17:22:42.694Z,23.10
2018-09-19T17:25:11.190Z,23.10
2018-09-19T17:27:39.723Z,23.00
2018-09-19T17:30:08.297Z,22.90
2018-09-19T17:32:36.777Z,22.80
2018-09-19T17:35:05.349Z,22.70
2018-09-19T17:37:33.826Z,22.60
2018-09-19T17:40:02.354Z,22.50
2018-09-19T17:42:30.879Z,22.40
2018-09-19T17:44:59.427Z,22.40
2018-09-19T17:47:27.950Z,22.20
2018-09-19T17:49:56.597Z,22.20
2018-09-19T17:52:25.117Z,22.20
2018-09-19T17:54:53.763Z,22.10
2018-09-19T17:57:22.486Z,22.00
2018-09-19T17:59:51.148Z,22.00
2018-09-19T18:02:19.884Z,21.90
2018-09-19T18:04:48.599Z,21.80
2018-09-19T18:07:17.166Z,21.60
2018-09-19T18:09:45.848Z,21.50
2018-09-19T18:12:14.996Z,21.50
2018-09-19T18:14:43.746Z,21.40
2018-09-19T18:17:12.493Z,21.40
2018-09-19T18:19:41.304Z,21.30
2018-09-19T18:22:10.163Z,21.30
2018-09-19T18:24:38.859Z,21.20
2018-09-19T18:27:07.797Z,21.10
2018-09-19T18:29:36.774Z,21.00
2018-09-19T18:32:05.724Z,21.00
2018-09-19T18:34:34.662Z,20.90
2018-09-19T18:37:03.541Z,20.90
2018-09-19T18:39:32.228Z,20.80
2018-09-19T18:42:01.177Z,20.80
2018-09-19T18:44:30.537Z,20.80
2018-09-19T18:46:59.945Z,20.70
2018-09-19T18:49:29.300Z,20.70
2018-09-19T18:51:58.864Z,20.60
2018-09-19T18:54:28.124Z,20.50
2018-09-19T18:56:57.298Z,20.50
2018-09-19T18:59:26.770Z,20.40
2018-09-19T19:01:56.583Z,20.20
2018-09-19T19:04:25.894Z,20.00
2018-09-19T19:06:55.230Z,19.90
2018-09-19T19:09:24.576Z,19.80
2018-09-19T19:11:53.872Z,19.70
2018-09-19T19:14:23.108Z,19.70
2018-09-19T19:16:52.280Z,19.60
2018-09-19T19:19:21.261Z,19.60
2018-09-19T19:21:50.258Z,19.70
2018-09-19T19:24:19.193Z,19.60
2018-09-19T19:26:48.446Z,19.60
2018-09-19T19:29:17.620Z,19.50
2018-09-19T19:31:46.661Z,19.50
2018-09-19T19:34:15.646Z,19.60
2018-09-19T19:36:44.493Z,19.60
2018-09-19T19:39:13.556Z,19.60
2018-09-19T19:41:42.730Z,19.50
2018-09-19T19:44:11.796Z,19.40
2018-09-19T19:46:41.217Z,19.40
2018-09-19T19:49:10.149Z,19.40
2018-09-19T19:51:38.962Z,19.30
2018-09-19T19:54:07.956Z,19.30
2018-09-19T19:56:37.203Z,19.20
2018-09-19T19:59:06.162Z,19.10
2018-09-19T20:01:35.129Z,19.00
2018-09-19T20:04:04.099Z,19.00
2018-09-19T20:06:32.982Z,18.90
2018-09-19T20:09:01.884Z,18.80
2018-09-19T20:11:30.657Z,18.80
2018-09-19T20:13:59.337Z,18.80
2018-09-19T20:16:27.977Z,18.80
2018-09-19T20:18:56.753Z,18.80
2018-09-19T20:21:25.424Z,18.80
2018-09-19T20:23:54.123Z,18.70
2018-09-19T20:26:22.837Z,18.70
2018-09-19T20:28:51.505Z,18.60
2018-09-19T20:31:20.269Z,18.60
2018-09-19T20:33:48.819Z,18.50
2018-09-19T20:36:17.377Z,18.50
2018-09-19T20:38:46.096Z,18.40
2018-09-19T20:41:14.806Z,18.40
2018-09-19T20:43:43.799Z,18.40
2018-09-19T20:46:12.445Z,18.30
2018-09-19T20:48:41.129Z,18.30
2018-09-19T20:51:09.812Z,18.30
2018-09-19T20:53:38.571Z,18.20
2018-09-19T20:56:07.165Z,18.20
2018-09-19T20:58:35.721Z,18.20
2018-09-19T21:01:04.211Z,18.20
2018-09-19T21:03:32.695Z,18.20
2018-09-19T21:06:01.515Z,18.20
2018-09-19T21:08:30.225Z,18.20
2018-09-19T21:10:58.722Z,18.20
2018-09-19T21:13:27.203Z,18.20
2018-09-19T21:15:55.822Z,18.20
2018-09-19T21:18:24.346Z,18.20
2018-09-19T21:20:52.819Z,18.20
2018-09-19T21:23:21.278Z,18.20
2018-09-19T21:25:49.775Z,18.20
2018-09-19T21:28:18.243Z,18.20
2018-09-19T21:30:46.739Z,18.20
2018-09-19T21:33:15.210Z,18.20
2018-09-19T21:35:43.683Z,18.20
2018-09-19T21:38:12.362Z,18.10
2018-09-19T21:40:40.862Z,18.10
2018-09-19T21:43:09.349Z,18.10
2018-09-19T21:45:37.806Z,18.10
2018-09-19T21:48:06.291Z,18.10
2018-09-19T21:50:34.792Z,18.10
2018-09-19T21:53:03.263Z,18.00
2018-09-19T21:55:31.739Z,17.90
2018-09-19T21:58:00.193Z,17.90
2018-09-19T22:00:28.693Z,17.90
2018-09-19T22:02:57.154Z,17.90
2018-09-19T22:05:25.653Z,17.90
2018-09-19T22:07:54.139Z,17.90
2018-09-19T22:10:22.659Z,17.90
2018-09-19T22:12:51.162Z,17.80
2018-09-19T22:15:19.651Z,17.80
2018-09-19T22:17:48.132Z,17.80
2018-09-19T22:20:16.644Z,17.80
2018-09-19T22:22:45.124Z,17.80
2018-09-19T22:25:13.630Z,17.80
2018-09-19T22:27:42.265Z,17.80
2018-09-19T22:30:10.576Z,17.80
2018-09-19T22:32:39.029Z,17.70
2018-09-19T22:35:07.535Z,17.70
2018-09-19T22:37:36.027Z,17.70
2018-09-19T22:40:04.563Z,17.60
2018-09-19T22:42:33.029Z,17.60
2018-09-19T22:45:01.469Z,17.60
2018-09-19T22:47:29.919Z,17.50
2018-09-19T22:49:58.344Z,17.60
2018-09-19T22:52:26.787Z,17.50
2018-09-19T22:54:55.269Z,17.50
2018-09-19T22:57:23.785Z,17.40
2018-09-19T22:59:52.252Z,17.40
2018-09-19T23:02:20.711Z,17.40
2018-09-19T23:04:49.745Z,17.30
2018-09-19T23:07:18.208Z,17.30
2018-09-19T23:09:46.949Z,17.30
2018-09-19T23:12:15.550Z,17.30
2018-09-19T23:14:43.976Z,17.30
2018-09-19T23:17:12.501Z,17.20
2018-09-19T23:19:41.078Z,17.20
2018-09-19T23:22:09.539Z,17.10
2018-09-19T23:24:37.982Z,17.10
2018-09-19T23:27:06.466Z,17.10
2018-09-19T23:29:34.894Z,17.00
2018-09-19T23:32:03.442Z,17.00
2018-09-19T23:34:31.911Z,17.10
2018-09-19T23:37:00.398Z,17.00
2018-09-19T23:39:28.761Z,17.10
2018-09-19T23:41:57.221Z,17.10
2018-09-19T23:44:25.701Z,17.00
2018-09-19T23:46:54.142Z,17.10
2018-09-19T23:49:22.612Z,17.00
2018-09-19T23:51:51.046Z,17.00
2018-09-19T23:54:19.470Z,17.00
2018-09-19T23:56:47.926Z,17.00
2018-09-19T23:59:16.376Z,17.00
